sensor_id;sensor_type;location;lat;lon;timestamp;pressure;altitude;pressure_sealevel;temperature;humidity
47556;BME280;33291;46.222;26.460;2023-09-08T00:01:20;97361.50;;;15.08;95.83
47556;BME280;33291;46.222;26.460;2023-09-08T00:03:46;97366.91;;;15.06;95.77
47556;BME280;33291;46.222;26.460;2023-09-08T00:06:11;97362.47;;;15.07;95.82
47556;BME280;33291;46.222;26.460;2023-09-08T00:08:37;97367.97;;;15.14;95.79
47556;BME280;33291;46.222;26.460;2023-09-08T00:11:02;97369.31;;;15.18;95.28
47556;BME280;33291;46.222;26.460;2023-09-08T00:13:28;97363.13;;;15.19;94.92
47556;BME280;33291;46.222;26.460;2023-09-08T00:15:53;97363.94;;;15.19;95.16
47556;BME280;33291;46.222;26.460;2023-09-08T00:18:18;97362.81;;;15.22;95.05
47556;BME280;33291;46.222;26.460;2023-09-08T00:20:44;97355.25;;;15.19;95.32
47556;BME280;33291;46.222;26.460;2023-09-08T00:23:09;97366.41;;;15.21;95.49
47556;BME280;33291;46.222;26.460;2023-09-08T00:25:35;97357.03;;;15.18;95.46
47556;BME280;33291;46.222;26.460;2023-09-08T00:28:00;97361.59;;;15.16;96.35
47556;BME280;33291;46.222;26.460;2023-09-08T00:30:26;97362.41;;;15.17;96.25
47556;BME280;33291;46.222;26.460;2023-09-08T00:32:51;97365.59;;;15.20;96.26
47556;BME280;33291;46.222;26.460;2023-09-08T00:35:17;97347.56;;;15.07;95.92
47556;BME280;33291;46.222;26.460;2023-09-08T00:37:43;97357.16;;;15.17;95.83
47556;BME280;33291;46.222;26.460;2023-09-08T00:40:09;97348.91;;;15.12;95.67
47556;BME280;33291;46.222;26.460;2023-09-08T00:42:35;97373.84;;;15.25;96.00
47556;BME280;33291;46.222;26.460;2023-09-08T00:45:00;97360.50;;;15.19;96.32
47556;BME280;33291;46.222;26.460;2023-09-08T00:47:26;97357.94;;;15.27;96.49
47556;BME280;33291;46.222;26.460;2023-09-08T00:49:51;97334.69;;;15.14;96.50
47556;BME280;33291;46.222;26.460;2023-09-08T00:52:17;97357.13;;;15.26;96.73
47556;BME280;33291;46.222;26.460;2023-09-08T00:54:43;97343.63;;;15.21;96.88
47556;BME280;33291;46.222;26.460;2023-09-08T00:57:09;97361.56;;;15.26;96.94
47556;BME280;33291;46.222;26.460;2023-09-08T00:59:35;97364.03;;;15.27;96.99
47556;BME280;33291;46.222;26.460;2023-09-08T01:02:02;97353.84;;;15.24;96.95
47556;BME280;33291;46.222;26.460;2023-09-08T01:04:28;97351.88;;;15.26;97.01
47556;BME280;33291;46.222;26.460;2023-09-08T01:06:55;97353.38;;;15.29;97.19
47556;BME280;33291;46.222;26.460;2023-09-08T01:09:21;97360.28;;;15.30;97.22
47556;BME280;33291;46.222;26.460;2023-09-08T01:11:48;97324.34;;;15.13;96.94
47556;BME280;33291;46.222;26.460;2023-09-08T01:14:17;97345.66;;;15.27;97.18
47556;BME280;33291;46.222;26.460;2023-09-08T01:16:43;97350.75;;;15.29;98.08
47556;BME280;33291;46.222;26.460;2023-09-08T01:19:12;97349.53;;;15.23;98.21
47556;BME280;33291;46.222;26.460;2023-09-08T01:27:00;97346.47;;;15.28;98.62
47556;BME280;33291;46.222;26.460;2023-09-08T01:29:26;97308.91;;;15.09;98.41
47556;BME280;33291;46.222;26.460;2023-09-08T01:31:53;97334.31;;;15.27;98.68
47556;BME280;33291;46.222;26.460;2023-09-08T01:34:19;97333.94;;;15.22;99.01
47556;BME280;33291;46.222;26.460;2023-09-08T01:36:45;97335.31;;;15.26;98.97
47556;BME280;33291;46.222;26.460;2023-09-08T01:39:10;97317.53;;;15.20;98.95
47556;BME280;33291;46.222;26.460;2023-09-08T01:41:36;97334.72;;;15.32;99.12
47556;BME280;33291;46.222;26.460;2023-09-08T01:44:01;97335.03;;;15.29;99.52
47556;BME280;33291;46.222;26.460;2023-09-08T01:46:33;97341.69;;;15.23;99.90
47556;BME280;33291;46.222;26.460;2023-09-08T01:48:59;97347.44;;;15.27;99.84
47556;BME280;33291;46.222;26.460;2023-09-08T01:51:24;97344.16;;;15.25;99.84
47556;BME280;33291;46.222;26.460;2023-09-08T01:53:50;97341.53;;;15.25;100.00
47556;BME280;33291;46.222;26.460;2023-09-08T01:56:15;97333.94;;;15.22;100.00
47556;BME280;33291;46.222;26.460;2023-09-08T01:58:41;97332.84;;;15.24;100.00
47556;BME280;33291;46.222;26.460;2023-09-08T02:01:06;97338.59;;;15.28;99.93
47556;BME280;33291;46.222;26.460;2023-09-08T02:03:32;97333.06;;;15.31;99.88
47556;BME280;33291;46.222;26.460;2023-09-08T02:05:57;97319.56;;;15.26;100.00
47556;BME280;33291;46.222;26.460;2023-09-08T02:08:23;97301.16;;;15.08;100.00
47556;BME280;33291;46.222;26.460;2023-09-08T02:10:48;97330.50;;;15.21;100.00
47556;BME280;33291;46.222;26.460;2023-09-08T02:13:14;97322.81;;;15.10;100.00
47556;BME280;33291;46.222;26.460;2023-09-08T02:15:39;97340.00;;;15.22;100.00
47556;BME280;33291;46.222;26.460;2023-09-08T02:18:06;97338.91;;;15.25;100.00
47556;BME280;33291;46.222;26.460;2023-09-08T02:20:32;97325.41;;;15.20;100.00
47556;BME280;33291;46.222;26.460;2023-09-08T02:23:04;97341.38;;;15.26;100.00
47556;BME280;33291;46.222;26.460;2023-09-08T02:25:30;97337.53;;;15.21;100.00
47556;BME280;33291;46.222;26.460;2023-09-08T02:27:56;97340.31;;;15.19;100.00
47556;BME280;33291;46.222;26.460;2023-09-08T02:30:21;97338.38;;;15.21;100.00
47556;BME280;33291;46.222;26.460;2023-09-08T02:32:47;97336.44;;;15.23;100.00
47556;BME280;33291;46.222;26.460;2023-09-08T02:35:12;97333.94;;;15.22;100.00
47556;BME280;33291;46.222;26.460;2023-09-08T02:37:38;97320.44;;;15.17;100.00
47556;BME280;33291;46.222;26.460;2023-09-08T02:40:05;97337.94;;;15.26;100.00
47556;BME280;33291;46.222;26.460;2023-09-08T02:42:31;97344.31;;;15.23;100.00
47556;BME280;33291;46.222;26.460;2023-09-08T02:44:56;97333.94;;;15.22;100.00
47556;BME280;33291;46.222;26.460;2023-09-08T02:47:22;97340.84;;;15.23;100.00
47556;BME280;33291;46.222;26.460;2023-09-08T02:49:47;97344.31;;;15.23;100.00
47556;BME280;33291;46.222;26.460;2023-09-08T02:52:12;97334.75;;;15.22;100.00
47556;BME280;33291;46.222;26.460;2023-09-08T02:54:38;97335.91;;;15.20;100.00
47556;BME280;33291;46.222;26.460;2023-09-08T02:57:04;97338.78;;;15.17;100.00
47556;BME280;33291;46.222;26.460;2023-09-08T02:59:30;97332.06;;;15.14;100.00
47556;BME280;33291;46.222;26.460;2023-09-08T03:01:55;97303.59;;;14.91;100.00
47556;BME280;33291;46.222;26.460;2023-09-08T03:04:21;97328.50;;;15.05;100.00
47556;BME280;33291;46.222;26.460;2023-09-08T03:06:46;97331.13;;;15.05;100.00
47556;BME280;33291;46.222;26.460;2023-09-08T03:09:11;97341.25;;;15.00;100.00
47556;BME280;33291;46.222;26.460;2023-09-08T03:11:37;97332.84;;;14.97;100.00
47556;BME280;33291;46.222;26.460;2023-09-08T03:14:02;97340.19;;;14.93;100.00
47556;BME280;33291;46.222;26.460;2023-09-08T03:16:28;97332.59;;;14.90;100.00
47556;BME280;33291;46.222;26.460;2023-09-08T03:18:53;97339.25;;;14.84;100.00
47556;BME280;33291;46.222;26.460;2023-09-08T03:21:19;97344.78;;;14.81;100.00
47556;BME280;33291;46.222;26.460;2023-09-08T03:23:46;97342.44;;;14.78;100.00
47556;BME280;33291;46.222;26.460;2023-09-08T03:26:11;97349.66;;;14.76;100.00
47556;BME280;33291;46.222;26.460;2023-09-08T03:28:38;97357.66;;;14.74;100.00
47556;BME280;33291;46.222;26.460;2023-09-08T03:31:06;97346.63;;;14.71;100.00
47556;BME280;33291;46.222;26.460;2023-09-08T03:33:32;97349.97;;;14.63;100.00
47556;BME280;33291;46.222;26.460;2023-09-08T03:35:57;97365.13;;;14.69;100.00
47556;BME280;33291;46.222;26.460;2023-09-08T03:38:23;97367.06;;;14.67;100.00
47556;BME280;33291;46.222;26.460;2023-09-08T03:40:48;97363.19;;;14.71;100.00
47556;BME280;33291;46.222;26.460;2023-09-08T03:43:14;97370.06;;;14.72;100.00
47556;BME280;33291;46.222;26.460;2023-09-08T03:45:40;97372.03;;;14.70;100.00
47556;BME280;33291;46.222;26.460;2023-09-08T03:48:05;97370.06;;;14.72;100.00
47556;BME280;33291;46.222;26.460;2023-09-08T03:50:31;97371.44;;;14.77;100.00
47556;BME280;33291;46.222;26.460;2023-09-08T03:52:57;97379.44;;;14.75;100.00
47556;BME280;33291;46.222;26.460;2023-09-08T03:55:22;97381.25;;;14.74;100.00
47556;BME280;33291;46.222;26.460;2023-09-08T03:57:48;97371.19;;;14.70;100.00
47556;BME280;33291;46.222;26.460;2023-09-08T04:00:14;97373.69;;;14.71;100.00
47556;BME280;33291;46.222;26.460;2023-09-08T04:02:45;97358.53;;;14.65;100.00
47556;BME280;33291;46.222;26.460;2023-09-08T04:05:10;97375.31;;;14.72;100.00
47556;BME280;33291;46.222;26.460;2023-09-08T04:07:36;97358.66;;;14.54;100.00
47556;BME280;33291;46.222;26.460;2023-09-08T04:10:02;97374.94;;;14.67;100.00
47556;BME280;33291;46.222;26.460;2023-09-08T04:12:28;97375.59;;;14.69;100.00
47556;BME280;33291;46.222;26.460;2023-09-08T04:14:53;97365.94;;;14.60;100.00
47556;BME280;33291;46.222;26.460;2023-09-08T04:17:19;97385.50;;;14.75;100.00
47556;BME280;33291;46.222;26.460;2023-09-08T04:19:44;97376.69;;;14.77;100.00
47556;BME280;33291;46.222;26.460;2023-09-08T04:22:10;97350.34;;;14.58;100.00
47556;BME280;33291;46.222;26.460;2023-09-08T04:24:36;97386.50;;;14.74;100.00
47556;BME280;33291;46.222;26.460;2023-09-08T04:27:02;97372.03;;;14.70;100.00
47556;BME280;33291;46.222;26.460;2023-09-08T04:29:28;97371.34;;;14.68;100.00
47556;BME280;33291;46.222;26.460;2023-09-08T04:31:53;97380.84;;;14.69;100.00
47556;BME280;33291;46.222;26.460;2023-09-08T04:34:18;97377.69;;;14.66;100.00
47556;BME280;33291;46.222;26.460;2023-09-08T04:36:44;97381.41;;;14.63;100.00
47556;BME280;33291;46.222;26.460;2023-09-08T04:39:09;97389.28;;;14.63;100.00
47556;BME280;33291;46.222;26.460;2023-09-08T04:41:36;97387.66;;;14.62;100.00
47556;BME280;33291;46.222;26.460;2023-09-08T04:44:02;97391.09;;;14.63;100.00
47556;BME280;33291;46.222;26.460;2023-09-08T04:46:28;97398.00;;;14.64;100.00
47556;BME280;33291;46.222;26.460;2023-09-08T04:48:54;97388.59;;;14.61;100.00
47556;BME280;33291;46.222;26.460;2023-09-08T04:51:19;97390.94;;;14.64;100.00
47556;BME280;33291;46.222;26.460;2023-09-08T04:53:45;97395.34;;;14.73;100.00
47556;BME280;33291;46.222;26.460;2023-09-08T04:56:10;97371.91;;;14.62;100.00
47556;BME280;33291;46.222;26.460;2023-09-08T04:58:36;97385.22;;;14.79;100.00
47556;BME280;33291;46.222;26.460;2023-09-08T05:01:01;97389.75;;;14.86;100.00
47556;BME280;33291;46.222;26.460;2023-09-08T05:03:27;97387.69;;;14.90;100.00
47556;BME280;33291;46.222;26.460;2023-09-08T05:05:52;97390.97;;;15.02;100.00
47556;BME280;33291;46.222;26.460;2023-09-08T05:08:18;97386.63;;;15.10;99.83
47556;BME280;33291;46.222;26.460;2023-09-08T05:10:46;97388.66;;;15.17;98.72
47556;BME280;33291;46.222;26.460;2023-09-08T05:13:11;97388.91;;;15.23;98.35
47556;BME280;33291;46.222;26.460;2023-09-08T05:15:36;97374.28;;;15.21;98.02
47556;BME280;33291;46.222;26.460;2023-09-08T05:18:04;97385.78;;;15.38;97.52
47556;BME280;33291;46.222;26.460;2023-09-08T05:20:30;97386.03;;;15.44;96.78
47556;BME280;33291;46.222;26.460;2023-09-08T05:22:55;97361.19;;;15.39;96.10
47556;BME280;33291;46.222;26.460;2023-09-08T05:25:21;97381.25;;;15.58;95.71
47556;BME280;33291;46.222;26.460;2023-09-08T05:27:46;97379.00;;;15.63;95.38
47556;BME280;33291;46.222;26.460;2023-09-08T05:30:12;97378.41;;;15.69;94.78
47556;BME280;33291;46.222;26.460;2023-09-08T05:32:38;97384.88;;;15.75;93.78
47556;BME280;33291;46.222;26.460;2023-09-08T05:35:04;97385.41;;;15.78;94.09
47556;BME280;33291;46.222;26.460;2023-09-08T05:37:29;97367.03;;;15.78;93.55
47556;BME280;33291;46.222;26.460;2023-09-08T05:39:55;97384.44;;;15.97;92.94
47556;BME280;33291;46.222;26.460;2023-09-08T05:42:20;97379.66;;;15.93;90.76
47556;BME280;33291;46.222;26.460;2023-09-08T05:44:45;97369.13;;;15.93;91.08
47556;BME280;33291;46.222;26.460;2023-09-08T05:47:13;97378.50;;;16.13;90.78
47556;BME280;33291;46.222;26.460;2023-09-08T05:49:38;97385.75;;;16.20;90.26
47556;BME280;33291;46.222;26.460;2023-09-08T05:52:04;97380.59;;;16.28;89.61
47556;BME280;33291;46.222;26.460;2023-09-08T05:54:29;97374.88;;;16.32;88.45
47556;BME280;33291;46.222;26.460;2023-09-08T05:56:55;97387.13;;;16.50;88.21
47556;BME280;33291;46.222;26.460;2023-09-08T05:59:21;97383.41;;;16.61;87.15
47556;BME280;33291;46.222;26.460;2023-09-08T06:01:46;97377.22;;;16.70;86.39
47556;BME280;33291;46.222;26.460;2023-09-08T06:04:12;97370.50;;;16.76;85.31
47556;BME280;33291;46.222;26.460;2023-09-08T06:06:38;97373.72;;;16.87;84.11
47556;BME280;33291;46.222;26.460;2023-09-08T06:09:03;97360.59;;;16.96;83.17
47556;BME280;33291;46.222;26.460;2023-09-08T06:11:31;97381.09;;;17.18;82.75
47556;BME280;33291;46.222;26.460;2023-09-08T06:13:56;97377.03;;;17.32;81.83
47556;BME280;33291;46.222;26.460;2023-09-08T06:16:24;97381.34;;;17.42;80.28
47556;BME280;33291;46.222;26.460;2023-09-08T06:18:50;97385.34;;;17.54;78.81
47556;BME280;33291;46.222;26.460;2023-09-08T06:21:16;97378.25;;;17.63;77.46
47556;BME280;33291;46.222;26.460;2023-09-08T06:23:41;97378.63;;;17.76;77.34
47556;BME280;33291;46.222;26.460;2023-09-08T06:26:07;97366.75;;;17.88;76.93
47556;BME280;33291;46.222;26.460;2023-09-08T06:28:32;97372.09;;;17.97;76.20
47556;BME280;33291;46.222;26.460;2023-09-08T06:30:58;97370.13;;;18.07;75.65
47556;BME280;33291;46.222;26.460;2023-09-08T06:33:23;97383.59;;;18.20;74.49
47556;BME280;33291;46.222;26.460;2023-09-08T06:35:49;97374.72;;;18.29;73.53
47556;BME280;33291;46.222;26.460;2023-09-08T06:38:14;97377.34;;;18.38;72.73
47556;BME280;33291;46.222;26.460;2023-09-08T06:40:40;97369.41;;;18.46;71.73
47556;BME280;33291;46.222;26.460;2023-09-08T06:43:05;97374.34;;;18.57;69.99
47556;BME280;33291;46.222;26.460;2023-09-08T06:45:31;97385.53;;;18.76;68.18
47556;BME280;33291;46.222;26.460;2023-09-08T06:47:56;97380.91;;;18.86;67.20
47556;BME280;33291;46.222;26.460;2023-09-08T06:50:22;97386.47;;;18.99;66.11
47556;BME280;33291;46.222;26.460;2023-09-08T06:52:49;97366.19;;;19.00;65.06
47556;BME280;33291;46.222;26.460;2023-09-08T06:55:15;97381.78;;;19.18;63.44
47556;BME280;33291;46.222;26.460;2023-09-08T06:57:42;97374.84;;;19.17;62.43
47556;BME280;33291;46.222;26.460;2023-09-08T07:00:08;97378.13;;;19.27;60.98
47556;BME280;33291;46.222;26.460;2023-09-08T07:02:33;97381.88;;;19.33;60.72
47556;BME280;33291;46.222;26.460;2023-09-08T07:04:59;97373.97;;;19.33;60.42
47556;BME280;33291;46.222;26.460;2023-09-08T07:07:24;97380.00;;;19.42;59.94
47556;BME280;33291;46.222;26.460;2023-09-08T07:09:50;97377.19;;;19.43;59.24
47556;BME280;33291;46.222;26.460;2023-09-08T07:12:15;97376.38;;;19.43;58.22
47556;BME280;33291;46.222;26.460;2023-09-08T07:14:41;97381.66;;;19.43;58.37
47556;BME280;33291;46.222;26.460;2023-09-08T07:17:06;97379.63;;;19.53;58.90
47556;BME280;33291;46.222;26.460;2023-09-08T07:19:32;97384.41;;;19.58;58.81
47556;BME280;33291;46.222;26.460;2023-09-08T07:21:57;97382.53;;;19.66;59.13
47556;BME280;33291;46.222;26.460;2023-09-08T07:24:23;97389.09;;;19.70;59.02
47556;BME280;33291;46.222;26.460;2023-09-08T07:26:49;97374.25;;;19.69;58.29
47556;BME280;33291;46.222;26.460;2023-09-08T07:29:15;97387.69;;;19.91;57.62
47556;BME280;33291;46.222;26.460;2023-09-08T07:31:41;97367.88;;;19.87;57.29
47556;BME280;33291;46.222;26.460;2023-09-08T07:34:06;97387.38;;;20.09;57.10
47556;BME280;33291;46.222;26.460;2023-09-08T07:36:32;97382.19;;;20.16;56.79
47556;BME280;33291;46.222;26.460;2023-09-08T07:38:57;97384.31;;;20.20;56.69
47556;BME280;33291;46.222;26.460;2023-09-08T07:41:23;97376.19;;;20.22;56.36
47556;BME280;33291;46.222;26.460;2023-09-08T07:43:49;97380.22;;;20.33;55.60
47556;BME280;33291;46.222;26.460;2023-09-08T07:46:16;97373.13;;;20.33;55.15
47556;BME280;33291;46.222;26.460;2023-09-08T07:48:41;97372.09;;;20.34;55.14
47556;BME280;33291;46.222;26.460;2023-09-08T07:51:06;97373.22;;;20.40;55.32
47556;BME280;33291;46.222;26.460;2023-09-08T07:53:32;97377.97;;;20.45;55.06
47556;BME280;33291;46.222;26.460;2023-09-08T07:55:57;97340.84;;;20.38;54.95
47556;BME280;33291;46.222;26.460;2023-09-08T07:58:23;97370.00;;;20.68;54.03
47556;BME280;33291;46.222;26.460;2023-09-08T08:00:48;97362.16;;;20.74;52.87
47556;BME280;33291;46.222;26.460;2023-09-08T08:03:14;97356.31;;;20.79;52.99
47556;BME280;33291;46.222;26.460;2023-09-08T08:05:39;97354.84;;;20.91;52.95
47556;BME280;33291;46.222;26.460;2023-09-08T08:08:05;97352.94;;;21.00;52.64
47556;BME280;33291;46.222;26.460;2023-09-08T08:10:32;97356.19;;;21.17;52.21
47556;BME280;33291;46.222;26.460;2023-09-08T08:12:57;97353.25;;;21.27;52.06
47556;BME280;33291;46.222;26.460;2023-09-08T08:15:34;97350.75;;;21.40;51.13
47556;BME280;33291;46.222;26.460;2023-09-08T08:18:00;97350.31;;;21.52;50.36
47556;BME280;33291;46.222;26.460;2023-09-08T08:20:25;97352.03;;;21.59;49.62
47556;BME280;33291;46.222;26.460;2023-09-08T08:22:51;97351.47;;;21.64;48.65
47556;BME280;33291;46.222;26.460;2023-09-08T08:25:16;97344.84;;;21.75;48.12
47556;BME280;33291;46.222;26.460;2023-09-08T08:27:42;97348.19;;;21.83;46.72
47556;BME280;33291;46.222;26.460;2023-09-08T08:30:08;97349.00;;;21.84;46.38
47556;BME280;33291;46.222;26.460;2023-09-08T08:32:34;97357.28;;;21.96;46.11
47556;BME280;33291;46.222;26.460;2023-09-08T08:35:00;97356.50;;;22.02;45.08
47556;BME280;33291;46.222;26.460;2023-09-08T08:37:25;97355.38;;;22.11;45.08
47556;BME280;33291;46.222;26.460;2023-09-08T08:39:51;97348.03;;;22.13;45.18
47556;BME280;33291;46.222;26.460;2023-09-08T08:42:17;97348.28;;;22.18;45.69
47556;BME280;33291;46.222;26.460;2023-09-08T08:44:47;97347.72;;;22.23;46.07
47556;BME280;33291;46.222;26.460;2023-09-08T08:47:13;97346.94;;;22.29;45.80
47556;BME280;33291;46.222;26.460;2023-09-08T08:49:43;97349.47;;;22.38;45.18
47556;BME280;33291;46.222;26.460;2023-09-08T08:52:12;97335.25;;;22.24;44.81
47556;BME280;33291;46.222;26.460;2023-09-08T08:54:39;97344.47;;;22.28;46.07
47556;BME280;33291;46.222;26.460;2023-09-08T08:57:05;97338.44;;;22.34;44.19
47556;BME280;33291;46.222;26.460;2023-09-08T08:59:31;97337.03;;;22.38;43.95
47556;BME280;33291;46.222;26.460;2023-09-08T09:01:58;97349.16;;;22.47;44.37
47556;BME280;33291;46.222;26.460;2023-09-08T09:04:25;97337.50;;;22.48;43.53
47556;BME280;33291;46.222;26.460;2023-09-08T09:06:53;97344.28;;;22.58;43.58
47556;BME280;33291;46.222;26.460;2023-09-08T09:09:18;97340.63;;;22.59;42.49
47556;BME280;33291;46.222;26.460;2023-09-08T09:11:44;97338.97;;;22.58;42.17
47556;BME280;33291;46.222;26.460;2023-09-08T09:14:10;97332.66;;;22.59;42.60
47556;BME280;33291;46.222;26.460;2023-09-08T09:16:40;97336.00;;;22.67;42.73
47556;BME280;33291;46.222;26.460;2023-09-08T09:19:05;97336.22;;;22.73;42.12
47556;BME280;33291;46.222;26.460;2023-09-08T09:21:48;97331.09;;;22.71;42.05
47556;BME280;33291;46.222;26.460;2023-09-08T09:24:17;97334.19;;;22.75;42.96
47556;BME280;33291;46.222;26.460;2023-09-08T09:26:53;97322.53;;;22.76;42.39
47556;BME280;33291;46.222;26.460;2023-09-08T09:29:18;97325.69;;;22.93;41.84
47556;BME280;33291;46.222;26.460;2023-09-08T09:32:05;97329.38;;;22.92;41.19
47556;BME280;33291;46.222;26.460;2023-09-08T09:34:34;97326.53;;;22.93;41.34
47556;BME280;33291;46.222;26.460;2023-09-08T09:37:00;97329.00;;;23.01;41.12
47556;BME280;33291;46.222;26.460;2023-09-08T09:39:26;97325.16;;;23.04;40.98
47556;BME280;33291;46.222;26.460;2023-09-08T09:41:56;97324.75;;;23.07;41.11
47556;BME280;33291;46.222;26.460;2023-09-08T09:44:22;97322.50;;;23.04;40.87
47556;BME280;33291;46.222;26.460;2023-09-08T09:46:48;97319.22;;;23.09;40.61
47556;BME280;33291;46.222;26.460;2023-09-08T09:49:16;97311.25;;;23.09;40.48
47556;BME280;33291;46.222;26.460;2023-09-08T09:51:47;97321.53;;;23.18;39.99
47556;BME280;33291;46.222;26.460;2023-09-08T09:54:14;97304.19;;;23.22;40.12
47556;BME280;33291;46.222;26.460;2023-09-08T09:56:40;97320.38;;;23.34;40.51
47556;BME280;33291;46.222;26.460;2023-09-08T09:59:12;97302.63;;;23.41;40.11
47556;BME280;33291;46.222;26.460;2023-09-08T10:01:40;97311.03;;;23.58;40.39
47556;BME280;33291;46.222;26.460;2023-09-08T10:04:06;97306.94;;;23.69;39.79
47556;BME280;33291;46.222;26.460;2023-09-08T10:06:36;97287.69;;;23.60;39.00
47556;BME280;33291;46.222;26.460;2023-09-08T10:09:05;97294.25;;;23.65;38.96
47556;BME280;33291;46.222;26.460;2023-09-08T10:11:54;97311.25;;;23.77;38.85
47556;BME280;33291;46.222;26.460;2023-09-08T10:14:20;97311.25;;;23.77;39.14
47556;BME280;33291;46.222;26.460;2023-09-08T10:16:47;97308.41;;;23.85;37.71
47556;BME280;33291;46.222;26.460;2023-09-08T10:19:17;97296.72;;;23.73;37.96
47556;BME280;33291;46.222;26.460;2023-09-08T10:21:47;97293.25;;;23.79;38.87
47556;BME280;33291;46.222;26.460;2023-09-08T10:24:25;97299.41;;;23.80;38.11
47556;BME280;33291;46.222;26.460;2023-09-08T10:27:07;97303.88;;;23.79;37.71
47556;BME280;33291;46.222;26.460;2023-09-08T10:29:34;97295.69;;;23.81;37.86
47556;BME280;33291;46.222;26.460;2023-09-08T10:32:01;97302.28;;;23.85;38.15
47556;BME280;33291;46.222;26.460;2023-09-08T10:34:27;97299.84;;;23.90;36.88
47556;BME280;33291;46.222;26.460;2023-09-08T10:36:54;97296.97;;;23.85;36.74
47556;BME280;33291;46.222;26.460;2023-09-08T10:39:35;97302.72;;;23.95;35.61
47556;BME280;33291;46.222;26.460;2023-09-08T10:45:02;97275.69;;;23.91;36.46
47556;BME280;33291;46.222;26.460;2023-09-08T10:50:19;97278.34;;;24.05;36.98
47556;BME280;33291;46.222;26.460;2023-09-08T10:52:45;97276.31;;;24.07;36.10
47556;BME280;33291;46.222;26.460;2023-09-08T10:55:36;97292.28;;;23.93;36.81
47556;BME280;33291;46.222;26.460;2023-09-08T10:58:03;97284.66;;;23.77;37.14
47556;BME280;33291;46.222;26.460;2023-09-08T11:00:43;97278.31;;;23.78;36.58
47556;BME280;33291;46.222;26.460;2023-09-08T11:03:08;97271.56;;;23.69;36.90
47556;BME280;33291;46.222;26.460;2023-09-08T11:05:34;97269.09;;;23.74;37.15
47556;BME280;33291;46.222;26.460;2023-09-08T11:08:00;97270.19;;;23.93;37.58
47556;BME280;33291;46.222;26.460;2023-09-08T11:10:27;97268.09;;;24.02;37.22
47556;BME280;33291;46.222;26.460;2023-09-08T11:12:54;97266.69;;;24.06;36.06
47556;BME280;33291;46.222;26.460;2023-09-08T11:15:20;97258.91;;;23.98;36.37
47556;BME280;33291;46.222;26.460;2023-09-08T11:17:45;97271.19;;;23.99;36.26
47556;BME280;33291;46.222;26.460;2023-09-08T11:20:15;97258.69;;;23.92;36.45
47556;BME280;33291;46.222;26.460;2023-09-08T11:22:41;97261.75;;;23.89;36.88
47556;BME280;33291;46.222;26.460;2023-09-08T11:25:09;97242.50;;;23.81;36.97
47556;BME280;33291;46.222;26.460;2023-09-08T11:27:37;97259.53;;;23.93;36.25
47556;BME280;33291;46.222;26.460;2023-09-08T11:30:07;97250.72;;;23.92;36.48
47556;BME280;33291;46.222;26.460;2023-09-08T11:32:34;97259.28;;;24.08;36.57
47556;BME280;33291;46.222;26.460;2023-09-08T11:35:08;97241.28;;;24.10;35.80
47556;BME280;33291;46.222;26.460;2023-09-08T11:37:40;97239.63;;;24.22;35.42
47556;BME280;33291;46.222;26.460;2023-09-08T11:40:07;97240.88;;;24.26;34.67
47556;BME280;33291;46.222;26.460;2023-09-08T11:42:43;97220.41;;;24.07;34.27
47556;BME280;33291;46.222;26.460;2023-09-08T11:45:11;97238.19;;;24.20;34.82
47556;BME280;33291;46.222;26.460;2023-09-08T11:47:42;97238.81;;;24.22;34.82
47556;BME280;33291;46.222;26.460;2023-09-08T11:50:12;97232.66;;;24.21;34.58
47556;BME280;33291;46.222;26.460;2023-09-08T11:52:43;97209.34;;;24.10;34.38
47556;BME280;33291;46.222;26.460;2023-09-08T11:55:09;97223.44;;;24.24;34.56
47556;BME280;33291;46.222;26.460;2023-09-08T11:57:36;97216.91;;;24.26;33.89
47556;BME280;33291;46.222;26.460;2023-09-08T12:00:03;97227.56;;;24.26;33.80
47556;BME280;33291;46.222;26.460;2023-09-08T12:02:34;97220.41;;;24.20;33.85
47556;BME280;33291;46.222;26.460;2023-09-08T12:05:01;97213.03;;;24.09;33.27
47556;BME280;33291;46.222;26.460;2023-09-08T12:07:26;97226.13;;;24.17;33.94
47556;BME280;33291;46.222;26.460;2023-09-08T12:09:52;97214.88;;;24.22;34.36
47556;BME280;33291;46.222;26.460;2023-09-08T12:12:17;97210.75;;;24.26;34.87
47556;BME280;33291;46.222;26.460;2023-09-08T12:14:43;97214.25;;;24.26;33.22
47556;BME280;33291;46.222;26.460;2023-09-08T12:17:09;97189.69;;;24.11;33.26
47556;BME280;33291;46.222;26.460;2023-09-08T12:19:34;97207.28;;;24.25;33.33
47556;BME280;33291;46.222;26.460;2023-09-08T12:22:05;97210.13;;;24.30;33.29
47556;BME280;33291;46.222;26.460;2023-09-08T12:27:23;97205.84;;;24.29;33.56
47556;BME280;33291;46.222;26.460;2023-09-08T12:32:18;97197.84;;;24.29;33.17
47556;BME280;33291;46.222;26.460;2023-09-08T12:34:43;97196.41;;;24.27;33.33
47556;BME280;33291;46.222;26.460;2023-09-08T12:37:10;97197.84;;;24.29;34.27
47556;BME280;33291;46.222;26.460;2023-09-08T12:39:37;97189.44;;;24.33;33.84
47556;BME280;33291;46.222;26.460;2023-09-08T12:42:03;97185.13;;;24.32;33.73
47556;BME280;33291;46.222;26.460;2023-09-08T12:44:29;97191.28;;;24.32;33.53
47556;BME280;33291;46.222;26.460;2023-09-08T12:46:54;97189.25;;;24.27;33.26
47556;BME280;33291;46.222;26.460;2023-09-08T12:49:20;97191.06;;;24.34;33.71
47556;BME280;33291;46.222;26.460;2023-09-08T12:51:45;97189.19;;;24.41;34.37
47556;BME280;33291;46.222;26.460;2023-09-08T12:54:11;97183.03;;;24.47;33.74
47556;BME280;33291;46.222;26.460;2023-09-08T12:56:36;97174.03;;;24.41;33.11
47556;BME280;33291;46.222;26.460;2023-09-08T12:59:02;97163.81;;;24.38;33.04
47556;BME280;33291;46.222;26.460;2023-09-08T13:01:28;97153.63;;;24.28;32.65